sensor_id;sensor_type;location;lat;lon;timestamp;P1;P2;P0
50589;PMS7003;36547;50.514;30.840;2023-05-29T00:00:38;7.80;6.90;5.90
50589;PMS7003;36547;50.514;30.840;2023-05-29T00:01:41;8.30;7.10;6.30
50589;PMS7003;36547;50.514;30.840;2023-05-29T00:02:43;8.70;7.10;6.20
50589;PMS7003;36547;50.514;30.840;2023-05-29T00:03:46;6.90;6.90;5.80
50589;PMS7003;36547;50.514;30.840;2023-05-29T00:04:49;7.00;6.60;6.00
50589;PMS7003;36547;50.514;30.840;2023-05-29T00:05:52;8.00;7.70;5.80
50589;PMS7003;36547;50.514;30.840;2023-05-29T00:06:55;7.70;7.10;6.20
50589;PMS7003;36547;50.514;30.840;2023-05-29T00:07:59;8.90;8.30;7.20
50589;PMS7003;36547;50.514;30.840;2023-05-29T00:09:02;8.30;7.50;6.20
50589;PMS7003;36547;50.514;30.840;2023-05-29T00:10:05;8.09;7.82;6.27
50589;PMS7003;36547;50.514;30.840;2023-05-29T00:11:09;8.80;7.10;6.00
50589;PMS7003;36547;50.514;30.840;2023-05-29T00:12:11;8.89;7.00;6.44
50589;PMS7003;36547;50.514;30.840;2023-05-29T00:13:13;9.80;9.80;8.20
50589;PMS7003;36547;50.514;30.840;2023-05-29T00:14:15;7.50;7.50;6.20
50589;PMS7003;36547;50.514;30.840;2023-05-29T00:15:19;8.90;8.10;7.00
50589;PMS7003;36547;50.514;30.840;2023-05-29T00:16:22;7.25;7.25;6.00
50589;PMS7003;36547;50.514;30.840;2023-05-29T00:17:25;8.00;7.70;6.80
50589;PMS7003;36547;50.514;30.840;2023-05-29T00:18:28;8.30;8.00;6.10
50589;PMS7003;36547;50.514;30.840;2023-05-29T00:19:30;8.90;8.90;7.20
50589;PMS7003;36547;50.514;30.840;2023-05-29T00:20:33;7.90;7.00;5.70
50589;PMS7003;36547;50.514;30.840;2023-05-29T00:21:35;8.20;8.20;6.80
50589;PMS7003;36547;50.514;30.840;2023-05-29T00:22:38;9.50;8.00;7.00
50589;PMS7003;36547;50.514;30.840;2023-05-29T00:23:41;8.80;7.10;5.60
50589;PMS7003;36547;50.514;30.840;2023-05-29T00:24:45;7.90;7.20;5.40
50589;PMS7003;36547;50.514;30.840;2023-05-29T00:25:47;9.00;7.50;5.90
50589;PMS7003;36547;50.514;30.840;2023-05-29T00:26:49;8.80;7.70;6.40
50589;PMS7003;36547;50.514;30.840;2023-05-29T00:27:52;6.40;6.40;5.20
50589;PMS7003;36547;50.514;30.840;2023-05-29T00:28:54;9.10;8.60;6.70
50589;PMS7003;36547;50.514;30.840;2023-05-29T00:29:56;7.50;7.40;5.70
50589;PMS7003;36547;50.514;30.840;2023-05-29T00:30:59;8.90;8.60;7.20
50589;PMS7003;36547;50.514;30.840;2023-05-29T00:32:02;9.10;7.00;6.50
50589;PMS7003;36547;50.514;30.840;2023-05-29T00:33:04;7.00;6.90;6.30
50589;PMS7003;36547;50.514;30.840;2023-05-29T00:34:07;8.80;8.80;7.10
50589;PMS7003;36547;50.514;30.840;2023-05-29T00:35:09;10.11;8.33;7.22
50589;PMS7003;36547;50.514;30.840;2023-05-29T00:36:11;7.80;7.80;7.10
50589;PMS7003;36547;50.514;30.840;2023-05-29T00:37:13;9.50;8.70;6.60
50589;PMS7003;36547;50.514;30.840;2023-05-29T00:38:16;7.90;7.90;6.70
50589;PMS7003;36547;50.514;30.840;2023-05-29T00:39:18;9.30;8.10;7.00
50589;PMS7003;36547;50.514;30.840;2023-05-29T00:40:22;8.80;8.80;6.60
50589;PMS7003;36547;50.514;30.840;2023-05-29T00:41:25;8.30;8.30;6.10
50589;PMS7003;36547;50.514;30.840;2023-05-29T00:42:28;9.50;8.70;7.70
50589;PMS7003;36547;50.514;30.840;2023-05-29T00:43:30;9.20;8.70;7.00
50589;PMS7003;36547;50.514;30.840;2023-05-29T00:44:33;7.90;6.10;5.00
50589;PMS7003;36547;50.514;30.840;2023-05-29T00:45:35;7.90;7.90;6.30
50589;PMS7003;36547;50.514;30.840;2023-05-29T00:46:37;7.30;7.30;6.20
50589;PMS7003;36547;50.514;30.840;2023-05-29T00:47:41;7.73;7.45;5.73
50589;PMS7003;36547;50.514;30.840;2023-05-29T00:48:44;8.10;7.50;6.10
50589;PMS7003;36547;50.514;30.840;2023-05-29T00:49:47;7.82;7.82;6.55
50589;PMS7003;36547;50.514;30.840;2023-05-29T00:50:51;8.20;8.20;6.40
50589;PMS7003;36547;50.514;30.840;2023-05-29T00:51:53;6.80;6.10;4.90
50589;PMS7003;36547;50.514;30.840;2023-05-29T00:52:57;8.80;8.30;6.60
50589;PMS7003;36547;50.514;30.840;2023-05-29T00:54:02;9.10;9.10;7.00
50589;PMS7003;36547;50.514;30.840;2023-05-29T00:55:07;9.50;8.60;6.80
50589;PMS7003;36547;50.514;30.840;2023-05-29T00:56:11;7.40;7.40;6.40
50589;PMS7003;36547;50.514;30.840;2023-05-29T00:57:15;10.70;8.40;6.30
50589;PMS7003;36547;50.514;30.840;2023-05-29T00:58:18;7.30;7.30;6.20
50589;PMS7003;36547;50.514;30.840;2023-05-29T00:59:22;8.20;7.50;6.00
50589;PMS7003;36547;50.514;30.840;2023-05-29T01:00:27;11.30;10.00;7.10
50589;PMS7003;36547;50.514;30.840;2023-05-29T01:01:29;10.00;8.10;7.20
50589;PMS7003;36547;50.514;30.840;2023-05-29T01:02:32;7.70;7.60;6.60
50589;PMS7003;36547;50.514;30.840;2023-05-29T01:03:35;7.70;7.40;6.50
50589;PMS7003;36547;50.514;30.840;2023-05-29T01:04:38;7.82;7.82;6.64
50589;PMS7003;36547;50.514;30.840;2023-05-29T01:05:40;8.20;8.10;6.70
50589;PMS7003;36547;50.514;30.840;2023-05-29T01:06:43;8.40;8.40;6.90
50589;PMS7003;36547;50.514;30.840;2023-05-29T01:07:45;7.90;7.30;5.70
50589;PMS7003;36547;50.514;30.840;2023-05-29T01:08:47;9.70;8.30;6.30
50589;PMS7003;36547;50.514;30.840;2023-05-29T01:09:50;9.20;8.40;7.20
50589;PMS7003;36547;50.514;30.840;2023-05-29T01:10:53;10.10;9.30;7.00
50589;PMS7003;36547;50.514;30.840;2023-05-29T01:12:21;7.90;7.70;6.00
50589;PMS7003;36547;50.514;30.840;2023-05-29T01:13:29;7.00;7.00;5.90
50589;PMS7003;36547;50.514;30.840;2023-05-29T01:16:08;7.70;7.70;6.20
50589;PMS7003;36547;50.514;30.840;2023-05-29T01:17:18;6.90;6.90;6.30
50589;PMS7003;36547;50.514;30.840;2023-05-29T01:21:14;8.00;8.00;6.10
50589;PMS7003;36547;50.514;30.840;2023-05-29T01:22:32;8.30;7.30;5.90
50589;PMS7003;36547;50.514;30.840;2023-05-29T01:25:21;8.70;7.20;6.00
50589;PMS7003;36547;50.514;30.840;2023-05-29T01:27:58;7.80;7.80;6.40
50589;PMS7003;36547;50.514;30.840;2023-05-29T01:29:03;5.90;5.20;3.40
50589;PMS7003;36547;50.514;30.840;2023-05-29T01:30:09;8.30;8.30;6.60
50589;PMS7003;36547;50.514;30.840;2023-05-29T01:31:14;6.40;6.40;5.80
50589;PMS7003;36547;50.514;30.840;2023-05-29T01:32:19;6.70;5.70;4.50
50589;PMS7003;36547;50.514;30.840;2023-05-29T01:33:23;7.10;7.10;5.90
50589;PMS7003;36547;50.514;30.840;2023-05-29T01:34:26;7.50;7.10;6.00
50589;PMS7003;36547;50.514;30.840;2023-05-29T01:35:28;8.10;7.40;6.40
50589;PMS7003;36547;50.514;30.840;2023-05-29T01:36:31;7.50;7.00;5.90
50589;PMS7003;36547;50.514;30.840;2023-05-29T01:37:33;7.00;7.00;6.00
50589;PMS7003;36547;50.514;30.840;2023-05-29T01:38:35;5.80;5.80;5.30
50589;PMS7003;36547;50.514;30.840;2023-05-29T01:39:38;8.50;7.00;5.90
50589;PMS7003;36547;50.514;30.840;2023-05-29T01:40:41;8.80;7.30;5.80
50589;PMS7003;36547;50.514;30.840;2023-05-29T01:41:44;8.30;7.30;5.60
50589;PMS7003;36547;50.514;30.840;2023-05-29T01:42:48;9.50;8.20;6.90
50589;PMS7003;36547;50.514;30.840;2023-05-29T01:43:51;8.90;8.30;7.10
50589;PMS7003;36547;50.514;30.840;2023-05-29T01:44:55;8.00;8.00;6.30
50589;PMS7003;36547;50.514;30.840;2023-05-29T01:45:59;8.10;7.10;6.10
50589;PMS7003;36547;50.514;30.840;2023-05-29T01:47:02;8.30;8.00;5.90
50589;PMS7003;36547;50.514;30.840;2023-05-29T01:48:08;10.00;7.80;6.40
50589;PMS7003;36547;50.514;30.840;2023-05-29T01:49:11;9.30;8.60;6.80
50589;PMS7003;36547;50.514;30.840;2023-05-29T01:50:15;7.80;7.50;7.00
50589;PMS7003;36547;50.514;30.840;2023-05-29T01:51:20;10.80;8.90;7.70
50589;PMS7003;36547;50.514;30.840;2023-05-29T01:52:22;7.10;6.50;4.70
50589;PMS7003;36547;50.514;30.840;2023-05-29T01:53:24;7.30;7.30;6.30
50589;PMS7003;36547;50.514;30.840;2023-05-29T01:54:27;10.20;9.50;7.60
50589;PMS7003;36547;50.514;30.840;2023-05-29T01:55:30;10.00;8.20;6.40
50589;PMS7003;36547;50.514;30.840;2023-05-29T01:56:32;8.90;8.20;6.70
50589;PMS7003;36547;50.514;30.840;2023-05-29T01:57:35;9.10;8.90;7.00
50589;PMS7003;36547;50.514;30.840;2023-05-29T01:58:39;10.80;9.70;7.30
50589;PMS7003;36547;50.514;30.840;2023-05-29T01:59:43;9.30;8.60;7.40
50589;PMS7003;36547;50.514;30.840;2023-05-29T02:00:46;10.36;9.09;7.64
50589;PMS7003;36547;50.514;30.840;2023-05-29T02:01:49;11.50;9.10;7.30
50589;PMS7003;36547;50.514;30.840;2023-05-29T02:02:52;10.20;9.80;8.00
50589;PMS7003;36547;50.514;30.840;2023-05-29T02:03:55;9.60;8.10;6.50
50589;PMS7003;36547;50.514;30.840;2023-05-29T02:04:57;9.80;9.80;7.20
50589;PMS7003;36547;50.514;30.840;2023-05-29T02:05:59;8.50;7.30;6.40
50589;PMS7003;36547;50.514;30.840;2023-05-29T02:07:02;9.18;9.09;7.82
50589;PMS7003;36547;50.514;30.840;2023-05-29T02:08:05;10.09;9.36;7.55
50589;PMS7003;36547;50.514;30.840;2023-05-29T02:09:07;8.20;8.20;7.60
50589;PMS7003;36547;50.514;30.840;2023-05-29T02:10:11;7.90;7.90;6.20
50589;PMS7003;36547;50.514;30.840;2023-05-29T02:11:13;8.80;8.10;6.70
50589;PMS7003;36547;50.514;30.840;2023-05-29T02:12:16;11.00;9.20;8.00
50589;PMS7003;36547;50.514;30.840;2023-05-29T02:13:18;10.00;9.30;8.10
50589;PMS7003;36547;50.514;30.840;2023-05-29T02:14:21;8.20;7.70;6.00
50589;PMS7003;36547;50.514;30.840;2023-05-29T02:15:25;8.60;8.60;7.30
50589;PMS7003;36547;50.514;30.840;2023-05-29T02:16:27;9.30;8.80;7.70
50589;PMS7003;36547;50.514;30.840;2023-05-29T02:17:30;9.40;8.20;7.40
50589;PMS7003;36547;50.514;30.840;2023-05-29T02:18:33;10.50;10.50;7.50
50589;PMS7003;36547;50.514;30.840;2023-05-29T02:19:36;8.70;7.80;5.90
50589;PMS7003;36547;50.514;30.840;2023-05-29T02:20:38;8.20;8.20;7.00
50589;PMS7003;36547;50.514;30.840;2023-05-29T02:21:41;9.80;9.80;8.20
50589;PMS7003;36547;50.514;30.840;2023-05-29T02:22:43;12.30;9.60;8.00
50589;PMS7003;36547;50.514;30.840;2023-05-29T02:23:46;10.00;8.30;6.40
50589;PMS7003;36547;50.514;30.840;2023-05-29T02:24:48;9.40;9.40;8.10
50589;PMS7003;36547;50.514;30.840;2023-05-29T02:25:51;10.10;9.20;7.60
50589;PMS7003;36547;50.514;30.840;2023-05-29T02:26:53;9.90;8.30;6.80
50589;PMS7003;36547;50.514;30.840;2023-05-29T02:27:55;8.40;8.40;7.00
50589;PMS7003;36547;50.514;30.840;2023-05-29T02:28:58;8.40;8.40;7.00
50589;PMS7003;36547;50.514;30.840;2023-05-29T02:30:01;9.55;9.18;7.36
50589;PMS7003;36547;50.514;30.840;2023-05-29T02:31:04;11.70;9.30;7.10
50589;PMS7003;36547;50.514;30.840;2023-05-29T02:32:06;9.60;8.10;6.90
50589;PMS7003;36547;50.514;30.840;2023-05-29T02:33:09;9.60;7.40;6.10
50589;PMS7003;36547;50.514;30.840;2023-05-29T02:34:11;8.60;7.90;6.70
50589;PMS7003;36547;50.514;30.840;2023-05-29T02:35:14;9.20;8.20;6.60
50589;PMS7003;36547;50.514;30.840;2023-05-29T02:36:16;12.00;10.10;7.60
50589;PMS7003;36547;50.514;30.840;2023-05-29T02:37:18;9.80;9.50;7.20
50589;PMS7003;36547;50.514;30.840;2023-05-29T02:38:21;10.20;10.20;7.70
50589;PMS7003;36547;50.514;30.840;2023-05-29T02:39:23;7.40;7.40;6.20
50589;PMS7003;36547;50.514;30.840;2023-05-29T02:40:25;9.30;9.00;7.30
50589;PMS7003;36547;50.514;30.840;2023-05-29T02:41:28;8.90;8.40;7.00
50589;PMS7003;36547;50.514;30.840;2023-05-29T02:42:33;10.30;10.30;8.50
50589;PMS7003;36547;50.514;30.840;2023-05-29T02:43:35;11.70;10.60;8.30
50589;PMS7003;36547;50.514;30.840;2023-05-29T02:44:37;12.60;10.90;9.00
50589;PMS7003;36547;50.514;30.840;2023-05-29T02:45:40;9.40;9.40;8.00
50589;PMS7003;36547;50.514;30.840;2023-05-29T02:46:42;10.20;8.70;6.90
50589;PMS7003;36547;50.514;30.840;2023-05-29T02:47:45;9.50;8.70;7.50
50589;PMS7003;36547;50.514;30.840;2023-05-29T02:48:47;10.20;8.80;7.10
50589;PMS7003;36547;50.514;30.840;2023-05-29T02:49:50;9.45;8.27;6.00
50589;PMS7003;36547;50.514;30.840;2023-05-29T02:50:53;10.00;8.80;7.10
50589;PMS7003;36547;50.514;30.840;2023-05-29T02:51:55;9.60;8.70;7.20
50589;PMS7003;36547;50.514;30.840;2023-05-29T02:52:58;8.90;7.80;5.40
50589;PMS7003;36547;50.514;30.840;2023-05-29T02:54:00;9.40;8.60;7.50
50589;PMS7003;36547;50.514;30.840;2023-05-29T02:55:03;9.40;8.00;6.60
50589;PMS7003;36547;50.514;30.840;2023-05-29T02:56:06;9.70;9.00;6.20
50589;PMS7003;36547;50.514;30.840;2023-05-29T02:57:09;8.90;8.60;7.60
50589;PMS7003;36547;50.514;30.840;2023-05-29T02:58:13;5.10;5.10;4.00
50589;PMS7003;36547;50.514;30.840;2023-05-29T02:59:16;6.60;6.60;5.70
50589;PMS7003;36547;50.514;30.840;2023-05-29T03:00:18;8.88;7.62;6.00
50589;PMS7003;36547;50.514;30.840;2023-05-29T03:01:20;7.50;6.50;5.30
50589;PMS7003;36547;50.514;30.840;2023-05-29T03:02:23;8.91;8.55;6.45
50589;PMS7003;36547;50.514;30.840;2023-05-29T03:03:26;9.45;7.36;6.00
50589;PMS7003;36547;50.514;30.840;2023-05-29T03:04:29;8.40;7.20;6.20
50589;PMS7003;36547;50.514;30.840;2023-05-29T03:05:31;7.00;7.00;5.50
50589;PMS7003;36547;50.514;30.840;2023-05-29T03:06:33;7.20;7.20;5.80
50589;PMS7003;36547;50.514;30.840;2023-05-29T03:07:36;7.40;7.00;5.10
50589;PMS7003;36547;50.514;30.840;2023-05-29T03:08:38;9.50;8.80;7.30
50589;PMS7003;36547;50.514;30.840;2023-05-29T03:09:40;6.50;6.50;5.40
50589;PMS7003;36547;50.514;30.840;2023-05-29T03:10:45;8.80;8.50;6.70
50589;PMS7003;36547;50.514;30.840;2023-05-29T03:11:49;7.90;6.70;5.90
50589;PMS7003;36547;50.514;30.840;2023-05-29T03:12:51;9.30;7.40;5.60
50589;PMS7003;36547;50.514;30.840;2023-05-29T03:13:54;9.80;9.10;6.30
50589;PMS7003;36547;50.514;30.840;2023-05-29T03:14:57;7.40;7.40;5.40
50589;PMS7003;36547;50.514;30.840;2023-05-29T03:15:59;8.50;7.30;5.90
50589;PMS7003;36547;50.514;30.840;2023-05-29T03:17:03;5.91;5.73;4.91
50589;PMS7003;36547;50.514;30.840;2023-05-29T03:18:07;6.30;6.30;5.20
50589;PMS7003;36547;50.514;30.840;2023-05-29T03:19:09;7.70;6.50;5.90
50589;PMS7003;36547;50.514;30.840;2023-05-29T03:20:12;7.30;7.00;4.90
50589;PMS7003;36547;50.514;30.840;2023-05-29T03:21:15;8.60;8.60;6.20
50589;PMS7003;36547;50.514;30.840;2023-05-29T03:22:17;7.20;6.60;5.40
50589;PMS7003;36547;50.514;30.840;2023-05-29T03:23:20;7.30;6.70;5.60
50589;PMS7003;36547;50.514;30.840;2023-05-29T03:24:22;8.40;7.10;5.90
50589;PMS7003;36547;50.514;30.840;2023-05-29T03:25:25;8.10;6.90;6.30
50589;PMS7003;36547;50.514;30.840;2023-05-29T03:26:28;6.91;6.91;5.27
50589;PMS7003;36547;50.514;30.840;2023-05-29T03:27:30;7.30;6.20;5.20
50589;PMS7003;36547;50.514;30.840;2023-05-29T03:28:35;7.40;6.60;5.50
50589;PMS7003;36547;50.514;30.840;2023-05-29T03:29:39;6.00;6.00;4.60
50589;PMS7003;36547;50.514;30.840;2023-05-29T03:30:41;7.82;5.91;4.82
50589;PMS7003;36547;50.514;30.840;2023-05-29T03:31:46;6.80;6.80;5.30
50589;PMS7003;36547;50.514;30.840;2023-05-29T03:32:50;7.70;7.60;6.10
50589;PMS7003;36547;50.514;30.840;2023-05-29T03:33:55;7.60;6.10;5.50
50589;PMS7003;36547;50.514;30.840;2023-05-29T03:34:59;7.50;5.90;4.10
50589;PMS7003;36547;50.514;30.840;2023-05-29T03:36:03;8.70;6.40;5.30
50589;PMS7003;36547;50.514;30.840;2023-05-29T03:37:05;6.50;6.40;4.90
50589;PMS7003;36547;50.514;30.840;2023-05-29T03:38:08;7.30;6.70;5.50
50589;PMS7003;36547;50.514;30.840;2023-05-29T03:39:11;5.45;5.45;4.82
50589;PMS7003;36547;50.514;30.840;2023-05-29T03:40:15;8.80;7.10;5.60
50589;PMS7003;36547;50.514;30.840;2023-05-29T03:41:18;4.64;4.64;4.00
50589;PMS7003;36547;50.514;30.840;2023-05-29T03:42:20;6.50;6.00;5.00
50589;PMS7003;36547;50.514;30.840;2023-05-29T03:43:24;7.00;5.60;4.10
50589;PMS7003;36547;50.514;30.840;2023-05-29T03:44:26;6.00;6.00;4.20
50589;PMS7003;36547;50.514;30.840;2023-05-29T03:45:29;6.80;6.80;5.30
50589;PMS7003;36547;50.514;30.840;2023-05-29T03:46:31;6.10;6.10;4.90
50589;PMS7003;36547;50.514;30.840;2023-05-29T03:47:35;6.00;6.00;5.50
50589;PMS7003;36547;50.514;30.840;2023-05-29T03:48:37;4.90;4.90;4.00
50589;PMS7003;36547;50.514;30.840;2023-05-29T03:49:39;6.20;5.60;4.40
50589;PMS7003;36547;50.514;30.840;2023-05-29T03:50:41;4.60;4.60;3.70
50589;PMS7003;36547;50.514;30.840;2023-05-29T03:51:45;4.80;3.80;2.90
50589;PMS7003;36547;50.514;30.840;2023-05-29T03:52:47;5.00;5.00;3.80
50589;PMS7003;36547;50.514;30.840;2023-05-29T03:53:50;5.00;4.60;3.90
50589;PMS7003;36547;50.514;30.840;2023-05-29T03:54:52;6.10;4.90;3.80
50589;PMS7003;36547;50.514;30.840;2023-05-29T03:55:54;5.40;5.40;4.60
50589;PMS7003;36547;50.514;30.840;2023-05-29T03:56:57;3.60;3.60;3.40
50589;PMS7003;36547;50.514;30.840;2023-05-29T03:58:01;6.50;6.00;4.20
50589;PMS7003;36547;50.514;30.840;2023-05-29T03:59:04;4.45;4.45;3.55
50589;PMS7003;36547;50.514;30.840;2023-05-29T04:00:08;3.18;3.18;2.45
50589;PMS7003;36547;50.514;30.840;2023-05-29T04:01:14;5.00;5.00;4.30
50589;PMS7003;36547;50.514;30.840;2023-05-29T04:02:17;4.60;4.60;3.20
50589;PMS7003;36547;50.514;30.840;2023-05-29T04:03:21;5.60;5.60;4.20
50589;PMS7003;36547;50.514;30.840;2023-05-29T04:04:24;5.27;4.64;4.00
50589;PMS7003;36547;50.514;30.840;2023-05-29T04:05:26;4.80;4.80;4.00
50589;PMS7003;36547;50.514;30.840;2023-05-29T04:06:29;4.10;4.10;3.80
50589;PMS7003;36547;50.514;30.840;2023-05-29T04:08:41;5.60;4.10;3.70
50589;PMS7003;36547;50.514;30.840;2023-05-29T04:09:44;4.82;4.45;3.91
50589;PMS7003;36547;50.514;30.840;2023-05-29T04:10:47;4.00;4.00;3.70
50589;PMS7003;36547;50.514;30.840;2023-05-29T04:11:49;4.30;4.30;3.20
50589;PMS7003;36547;50.514;30.840;2023-05-29T04:12:52;4.80;3.80;3.20
50589;PMS7003;36547;50.514;30.840;2023-05-29T04:13:56;5.60;4.80;3.70
50589;PMS7003;36547;50.514;30.840;2023-05-29T04:14:58;4.80;4.30;3.70
50589;PMS7003;36547;50.514;30.840;2023-05-29T04:16:01;5.10;4.20;4.00
50589;PMS7003;36547;50.514;30.840;2023-05-29T04:17:04;3.18;3.18;2.82
50589;PMS7003;36547;50.514;30.840;2023-05-29T04:18:06;5.50;4.80;4.00
50589;PMS7003;36547;50.514;30.840;2023-05-29T04:19:09;4.80;4.50;3.60
50589;PMS7003;36547;50.514;30.840;2023-05-29T04:20:12;6.10;4.30;3.70
50589;PMS7003;36547;50.514;30.840;2023-05-29T04:21:14;5.10;4.10;3.30
50589;PMS7003;36547;50.514;30.840;2023-05-29T04:22:16;4.90;4.10;3.30
50589;PMS7003;36547;50.514;30.840;2023-05-29T04:23:19;6.30;5.00;4.60
50589;PMS7003;36547;50.514;30.840;2023-05-29T04:24:21;5.80;4.60;3.80
50589;PMS7003;36547;50.514;30.840;2023-05-29T04:25:24;5.80;4.70;4.20
50589;PMS7003;36547;50.514;30.840;2023-05-29T04:26:26;4.90;4.30;3.90
50589;PMS7003;36547;50.514;30.840;2023-05-29T04:27:28;5.10;5.00;4.10
50589;PMS7003;36547;50.514;30.840;2023-05-29T04:28:31;4.10;4.00;3.50
50589;PMS7003;36547;50.514;30.840;2023-05-29T04:29:33;5.80;5.00;4.00
50589;PMS7003;36547;50.514;30.840;2023-05-29T04:30:36;6.00;4.64;3.73
50589;PMS7003;36547;50.514;30.840;2023-05-29T04:31:39;5.20;3.80;3.40
50589;PMS7003;36547;50.514;30.840;2023-05-29T04:32:42;4.50;4.50;3.90
50589;PMS7003;36547;50.514;30.840;2023-05-29T04:33:44;4.60;3.60;3.40
50589;PMS7003;36547;50.514;30.840;2023-05-29T04:34:46;5.20;4.20;4.10
50589;PMS7003;36547;50.514;30.840;2023-05-29T04:35:50;4.45;4.45;3.55
50589;PMS7003;36547;50.514;30.840;2023-05-29T04:36:52;3.80;3.50;3.00
50589;PMS7003;36547;50.514;30.840;2023-05-29T04:37:55;3.70;3.70;2.90
50589;PMS7003;36547;50.514;30.840;2023-05-29T04:38:58;5.45;4.45;3.91
50589;PMS7003;36547;50.514;30.840;2023-05-29T04:40:01;4.00;4.00;3.60
50589;PMS7003;36547;50.514;30.840;2023-05-29T04:41:03;5.40;4.80;3.80
50589;PMS7003;36547;50.514;30.840;2023-05-29T04:42:06;5.18;4.36;3.64
50589;PMS7003;36547;50.514;30.840;2023-05-29T04:43:09;3.90;3.90;2.80
50589;PMS7003;36547;50.514;30.840;2023-05-29T04:44:14;4.20;4.20;3.60
50589;PMS7003;36547;50.514;30.840;2023-05-29T04:45:21;4.80;4.80;3.90
50589;PMS7003;36547;50.514;30.840;2023-05-29T04:46:24;4.00;4.00;3.30
50589;PMS7003;36547;50.514;30.840;2023-05-29T04:47:28;3.50;3.10;2.80
50589;PMS7003;36547;50.514;30.840;2023-05-29T04:48:31;3.80;3.50;3.10
50589;PMS7003;36547;50.514;30.840;2023-05-29T04:49:33;3.90;3.90;3.40
50589;PMS7003;36547;50.514;30.840;2023-05-29T04:50:35;4.50;4.50;3.60
50589;PMS7003;36547;50.514;30.840;2023-05-29T04:51:38;5.10;3.90;3.00
50589;PMS7003;36547;50.514;30.840;2023-05-29T04:52:41;3.36;3.36;3.36
50589;PMS7003;36547;50.514;30.840;2023-05-29T04:53:44;4.00;4.00;3.00
50589;PMS7003;36547;50.514;30.840;2023-05-29T04:54:46;5.30;3.60;3.30
50589;PMS7003;36547;50.514;30.840;2023-05-29T04:55:50;3.90;3.90;3.60
50589;PMS7003;36547;50.514;30.840;2023-05-29T04:56:54;4.60;3.80;3.60
50589;PMS7003;36547;50.514;30.840;2023-05-29T04:57:58;4.50;4.50;3.80
50589;PMS7003;36547;50.514;30.840;2023-05-29T04:59:01;3.40;3.40;2.80
50589;PMS7003;36547;50.514;30.840;2023-05-29T05:00:04;4.40;3.40;2.90
50589;PMS7003;36547;50.514;30.840;2023-05-29T05:01:08;6.40;4.70;4.40
50589;PMS7003;36547;50.514;30.840;2023-05-29T05:02:12;3.60;3.60;2.50
50589;PMS7003;36547;50.514;30.840;2023-05-29T05:03:14;4.20;4.20;3.90
50589;PMS7003;36547;50.514;30.840;2023-05-29T05:04:17;3.90;3.90;3.20
50589;PMS7003;36547;50.514;30.840;2023-05-29T05:05:20;4.80;4.80;3.80
50589;PMS7003;36547;50.514;30.840;2023-05-29T05:06:23;4.30;4.30;3.40
50589;PMS7003;36547;50.514;30.840;2023-05-29T05:07:25;3.40;3.40;2.90
50589;PMS7003;36547;50.514;30.840;2023-05-29T05:08:28;3.90;3.90;2.90
50589;PMS7003;36547;50.514;30.840;2023-05-29T05:09:31;4.70;3.90;3.30
50589;PMS7003;36547;50.514;30.840;2023-05-29T05:10:34;4.36;3.64;3.00
50589;PMS7003;36547;50.514;30.840;2023-05-29T05:11:36;3.70;2.90;2.50
50589;PMS7003;36547;50.514;30.840;2023-05-29T05:12:40;3.00;2.80;2.40
50589;PMS7003;36547;50.514;30.840;2023-05-29T05:13:44;5.70;4.10;2.90
50589;PMS7003;36547;50.514;30.840;2023-05-29T05:14:46;5.80;4.50;4.10
50589;PMS7003;36547;50.514;30.840;2023-05-29T05:15:49;4.30;4.30;3.30
50589;PMS7003;36547;50.514;30.840;2023-05-29T05:16:52;6.18;4.36;3.91
50589;PMS7003;36547;50.514;30.840;2023-05-29T05:17:55;4.64;3.27;2.64
50589;PMS7003;36547;50.514;30.840;2023-05-29T05:18:57;3.80;3.80;3.20
50589;PMS7003;36547;50.514;30.840;2023-05-29T05:20:00;4.91;3.91;3.45
50589;PMS7003;36547;50.514;30.840;2023-05-29T05:21:03;3.10;3.10;3.00
50589;PMS7003;36547;50.514;30.840;2023-05-29T05:22:05;3.80;3.80;2.80
50589;PMS7003;36547;50.514;30.840;2023-05-29T05:23:09;3.10;3.10;2.90
50589;PMS7003;36547;50.514;30.840;2023-05-29T05:24:11;4.10;3.20;2.90
50589;PMS7003;36547;50.514;30.840;2023-05-29T05:25:14;3.40;2.90;2.20
50589;PMS7003;36547;50.514;30.840;2023-05-29T05:26:18;3.30;3.30;2.40
50589;PMS7003;36547;50.514;30.840;2023-05-29T05:27:21;3.90;3.90;3.50
50589;PMS7003;36547;50.514;30.840;2023-05-29T05:28:23;2.60;2.60;2.00
50589;PMS7003;36547;50.514;30.840;2023-05-29T05:29:26;3.30;3.10;2.70
50589;PMS7003;36547;50.514;30.840;2023-05-29T05:30:30;3.10;3.10;2.90
50589;PMS7003;36547;50.514;30.840;2023-05-29T05:31:34;2.50;2.50;2.00
50589;PMS7003;36547;50.514;30.840;2023-05-29T05:32:36;3.30;3.30;2.60
50589;PMS7003;36547;50.514;30.840;2023-05-29T05:33:40;4.30;3.00;2.90
50589;PMS7003;36547;50.514;30.840;2023-05-29T05:34:42;3.50;2.60;2.40
50589;PMS7003;36547;50.514;30.840;2023-05-29T05:35:45;3.60;2.70;2.50
50589;PMS7003;36547;50.514;30.840;2023-05-29T05:36:47;5.10;3.50;2.90
50589;PMS7003;36547;50.514;30.840;2023-05-29T05:37:49;2.50;2.50;2.30
50589;PMS7003;36547;50.514;30.840;2023-05-29T05:38:52;3.20;3.20;2.50
50589;PMS7003;36547;50.514;30.840;2023-05-29T05:39:54;3.30;3.30;2.80
50589;PMS7003;36547;50.514;30.840;2023-05-29T05:40:57;3.90;3.10;2.50
50589;PMS7003;36547;50.514;30.840;2023-05-29T05:42:01;2.50;2.50;1.80
50589;PMS7003;36547;50.514;30.840;2023-05-29T05:43:05;3.90;2.70;1.90
50589;PMS7003;36547;50.514;30.840;2023-05-29T05:44:28;3.60;2.30;1.80
50589;PMS7003;36547;50.514;30.840;2023-05-29T05:45:35;1.90;1.90;1.80
50589;PMS7003;36547;50.514;30.840;2023-05-29T05:46:38;2.50;2.20;2.00
50589;PMS7003;36547;50.514;30.840;2023-05-29T05:47:41;1.80;1.80;1.80
50589;PMS7003;36547;50.514;30.840;2023-05-29T05:48:43;2.30;2.30;2.00
50589;PMS7003;36547;50.514;30.840;2023-05-29T05:49:46;1.80;1.80;1.70
50589;PMS7003;36547;50.514;30.840;2023-05-29T05:50:48;1.40;1.40;0.80
50589;PMS7003;36547;50.514;30.840;2023-05-29T05:51:51;3.36;2.18;2.18
50589;PMS7003;36547;50.514;30.840;2023-05-29T05:52:54;2.09;2.09;1.73
50589;PMS7003;36547;50.514;30.840;2023-05-29T05:53:56;3.00;2.60;1.80
50589;PMS7003;36547;50.514;30.840;2023-05-29T05:55:00;3.10;1.90;2.00
50589;PMS7003;36547;50.514;30.840;2023-05-29T05:56:04;1.50;1.50;1.10
50589;PMS7003;36547;50.514;30.840;2023-05-29T05:57:07;1.64;1.64;1.36
50589;PMS7003;36547;50.514;30.840;2023-05-29T05:58:11;2.40;2.40;1.70
50589;PMS7003;36547;50.514;30.840;2023-05-29T05:59:13;2.20;2.20;1.90
50589;PMS7003;36547;50.514;30.840;2023-05-29T06:00:17;1.36;1.36;1.36
50589;PMS7003;36547;50.514;30.840;2023-05-29T06:01:19;2.60;2.60;1.80
50589;PMS7003;36547;50.514;30.840;2023-05-29T06:02:22;2.30;2.30;2.00
50589;PMS7003;36547;50.514;30.840;2023-05-29T06:03:25;2.70;2.70;2.20
50589;PMS7003;36547;50.514;30.840;2023-05-29T06:04:30;3.90;2.20;1.80
50589;PMS7003;36547;50.514;30.840;2023-05-29T06:05:33;3.18;2.91;2.18
50589;PMS7003;36547;50.514;30.840;2023-05-29T06:06:36;3.73;2.36;2.36
50589;PMS7003;36547;50.514;30.840;2023-05-29T06:07:39;2.60;2.50;1.80
50589;PMS7003;36547;50.514;30.840;2023-05-29T06:08:42;2.30;2.30;1.50
50589;PMS7003;36547;50.514;30.840;2023-05-29T06:09:45;2.50;2.50;2.00
50589;PMS7003;36547;50.514;30.840;2023-05-29T06:10:49;2.60;2.60;2.20
50589;PMS7003;36547;50.514;30.840;2023-05-29T06:11:52;2.27;2.27;2.09
50589;PMS7003;36547;50.514;30.840;2023-05-29T06:12:55;2.27;2.27;1.73